sensor_id;sensor_type;location;lat;lon;timestamp;P1;durP1;ratioP1;P2;durP2;ratioP2
33738;SDS011;20063;51.730;11.110;2023-04-15T00:01:22;14.77;;;9.18;;
33738;SDS011;20063;51.730;11.110;2023-04-15T00:03:49;16.17;;;8.38;;
33738;SDS011;20063;51.730;11.110;2023-04-15T00:06:21;18.95;;;9.50;;
33738;SDS011;20063;51.730;11.110;2023-04-15T00:08:47;12.32;;;8.65;;
33738;SDS011;20063;51.730;11.110;2023-04-15T00:11:14;12.30;;;9.02;;
33738;SDS011;20063;51.730;11.110;2023-04-15T00:13:41;12.20;;;8.63;;
33738;SDS011;20063;51.730;11.110;2023-04-15T00:16:07;14.57;;;8.15;;
33738;SDS011;20063;51.730;11.110;2023-04-15T00:18:34;12.88;;;9.20;;
33738;SDS011;20063;51.730;11.110;2023-04-15T00:21:00;12.13;;;8.35;;
33738;SDS011;20063;51.730;11.110;2023-04-15T00:23:27;12.25;;;8.07;;
33738;SDS011;20063;51.730;11.110;2023-04-15T00:25:53;12.68;;;8.60;;
33738;SDS011;20063;51.730;11.110;2023-04-15T00:28:18;15.43;;;9.43;;
33738;SDS011;20063;51.730;11.110;2023-04-15T00:30:44;14.57;;;8.48;;
33738;SDS011;20063;51.730;11.110;2023-04-15T00:33:11;15.60;;;8.77;;
33738;SDS011;20063;51.730;11.110;2023-04-15T00:35:37;13.38;;;9.60;;
33738;SDS011;20063;51.730;11.110;2023-04-15T00:38:04;16.50;;;9.13;;
33738;SDS011;20063;51.730;11.110;2023-04-15T00:40:32;15.02;;;9.18;;
33738;SDS011;20063;51.730;11.110;2023-04-15T00:42:58;14.30;;;8.32;;
33738;SDS011;20063;51.730;11.110;2023-04-15T00:45:24;14.48;;;8.32;;
33738;SDS011;20063;51.730;11.110;2023-04-15T00:47:51;13.55;;;8.43;;
33738;SDS011;20063;51.730;11.110;2023-04-15T00:50:17;14.07;;;9.35;;
33738;SDS011;20063;51.730;11.110;2023-04-15T00:52:42;18.63;;;11.23;;
33738;SDS011;20063;51.730;11.110;2023-04-15T00:55:08;13.73;;;9.32;;
33738;SDS011;20063;51.730;11.110;2023-04-15T00:57:34;12.52;;;8.63;;
33738;SDS011;20063;51.730;11.110;2023-04-15T01:00:00;15.40;;;9.50;;
33738;SDS011;20063;51.730;11.110;2023-04-15T01:02:27;12.95;;;9.90;;
33738;SDS011;20063;51.730;11.110;2023-04-15T01:04:53;14.40;;;9.25;;
33738;SDS011;20063;51.730;11.110;2023-04-15T01:07:18;13.70;;;9.48;;
33738;SDS011;20063;51.730;11.110;2023-04-15T01:09:44;13.65;;;10.15;;
33738;SDS011;20063;51.730;11.110;2023-04-15T01:12:13;15.90;;;10.50;;
33738;SDS011;20063;51.730;11.110;2023-04-15T01:14:42;14.00;;;10.40;;
33738;SDS011;20063;51.730;11.110;2023-04-15T01:17:08;17.35;;;11.10;;
33738;SDS011;20063;51.730;11.110;2023-04-15T01:19:35;25.85;;;12.95;;
33738;SDS011;20063;51.730;11.110;2023-04-15T01:22:01;23.63;;;13.38;;
33738;SDS011;20063;51.730;11.110;2023-04-15T01:24:28;16.65;;;11.65;;
33738;SDS011;20063;51.730;11.110;2023-04-15T01:26:55;17.92;;;12.38;;
33738;SDS011;20063;51.730;11.110;2023-04-15T01:29:21;19.88;;;13.32;;
33738;SDS011;20063;51.730;11.110;2023-04-15T01:31:50;19.48;;;13.57;;
33738;SDS011;20063;51.730;11.110;2023-04-15T01:34:17;21.20;;;14.25;;
33738;SDS011;20063;51.730;11.110;2023-04-15T01:36:43;21.60;;;15.30;;
33738;SDS011;20063;51.730;11.110;2023-04-15T01:39:10;22.98;;;15.00;;
33738;SDS011;20063;51.730;11.110;2023-04-15T01:41:35;24.83;;;15.27;;
33738;SDS011;20063;51.730;11.110;2023-04-15T01:44:02;21.75;;;15.90;;
33738;SDS011;20063;51.730;11.110;2023-04-15T01:46:28;22.27;;;14.95;;
33738;SDS011;20063;51.730;11.110;2023-04-15T01:48:53;20.20;;;14.75;;
33738;SDS011;20063;51.730;11.110;2023-04-15T01:51:19;25.60;;;15.85;;
33738;SDS011;20063;51.730;11.110;2023-04-15T01:53:45;25.27;;;16.58;;
33738;SDS011;20063;51.730;11.110;2023-04-15T01:56:11;27.63;;;17.65;;
33738;SDS011;20063;51.730;11.110;2023-04-15T01:58:38;26.85;;;16.55;;
33738;SDS011;20063;51.730;11.110;2023-04-15T02:01:04;30.58;;;18.88;;
33738;SDS011;20063;51.730;11.110;2023-04-15T02:03:30;28.83;;;17.08;;
33738;SDS011;20063;51.730;11.110;2023-04-15T02:05:56;27.63;;;18.45;;
33738;SDS011;20063;51.730;11.110;2023-04-15T02:08:22;30.20;;;19.70;;
33738;SDS011;20063;51.730;11.110;2023-04-15T02:10:48;24.50;;;17.40;;
33738;SDS011;20063;51.730;11.110;2023-04-15T02:13:13;26.88;;;18.48;;
33738;SDS011;20063;51.730;11.110;2023-04-15T02:15:39;33.05;;;18.60;;
33738;SDS011;20063;51.730;11.110;2023-04-15T02:18:05;25.35;;;17.60;;
33738;SDS011;20063;51.730;11.110;2023-04-15T02:20:31;27.45;;;16.75;;
33738;SDS011;20063;51.730;11.110;2023-04-15T02:23:00;22.42;;;16.05;;
33738;SDS011;20063;51.730;11.110;2023-04-15T02:25:25;24.35;;;15.90;;
33738;SDS011;20063;51.730;11.110;2023-04-15T02:27:51;25.73;;;15.98;;
33738;SDS011;20063;51.730;11.110;2023-04-15T02:30:17;21.38;;;15.00;;
33738;SDS011;20063;51.730;11.110;2023-04-15T02:32:43;21.92;;;14.73;;
33738;SDS011;20063;51.730;11.110;2023-04-15T02:35:09;30.55;;;16.30;;
33738;SDS011;20063;51.730;11.110;2023-04-15T02:37:35;21.50;;;14.93;;
33738;SDS011;20063;51.730;11.110;2023-04-15T02:40:06;28.77;;;16.08;;
33738;SDS011;20063;51.730;11.110;2023-04-15T02:42:33;25.27;;;16.60;;
33738;SDS011;20063;51.730;11.110;2023-04-15T02:44:59;23.20;;;15.73;;
33738;SDS011;20063;51.730;11.110;2023-04-15T02:47:24;22.13;;;15.90;;
33738;SDS011;20063;51.730;11.110;2023-04-15T02:49:51;26.77;;;16.70;;
33738;SDS011;20063;51.730;11.110;2023-04-15T02:52:16;26.83;;;15.93;;
33738;SDS011;20063;51.730;11.110;2023-04-15T02:54:42;25.02;;;16.75;;
33738;SDS011;20063;51.730;11.110;2023-04-15T02:57:08;28.80;;;17.42;;
33738;SDS011;20063;51.730;11.110;2023-04-15T02:59:34;23.20;;;16.67;;
33738;SDS011;20063;51.730;11.110;2023-04-15T03:02:00;24.75;;;16.25;;
33738;SDS011;20063;51.730;11.110;2023-04-15T03:04:27;22.63;;;15.80;;
33738;SDS011;20063;51.730;11.110;2023-04-15T03:06:54;26.55;;;15.60;;
33738;SDS011;20063;51.730;11.110;2023-04-15T03:09:20;26.35;;;15.85;;
33738;SDS011;20063;51.730;11.110;2023-04-15T03:11:46;28.60;;;17.27;;
33738;SDS011;20063;51.730;11.110;2023-04-15T03:14:12;26.88;;;16.50;;
33738;SDS011;20063;51.730;11.110;2023-04-15T03:16:37;27.73;;;16.55;;
33738;SDS011;20063;51.730;11.110;2023-04-15T03:19:03;27.42;;;16.67;;
33738;SDS011;20063;51.730;11.110;2023-04-15T03:21:29;25.77;;;16.48;;
33738;SDS011;20063;51.730;11.110;2023-04-15T03:23:55;29.27;;;15.40;;
33738;SDS011;20063;51.730;11.110;2023-04-15T03:26:27;26.08;;;15.75;;
33738;SDS011;20063;51.730;11.110;2023-04-15T03:28:54;30.65;;;16.30;;
33738;SDS011;20063;51.730;11.110;2023-04-15T03:31:20;25.60;;;15.98;;
33738;SDS011;20063;51.730;11.110;2023-04-15T03:33:46;30.13;;;16.92;;
33738;SDS011;20063;51.730;11.110;2023-04-15T03:36:11;26.08;;;15.68;;
33738;SDS011;20063;51.730;11.110;2023-04-15T03:38:37;24.33;;;15.70;;
33738;SDS011;20063;51.730;11.110;2023-04-15T03:41:03;25.42;;;15.18;;
33738;SDS011;20063;51.730;11.110;2023-04-15T03:43:29;33.58;;;17.42;;
33738;SDS011;20063;51.730;11.110;2023-04-15T03:45:54;28.52;;;15.90;;
33738;SDS011;20063;51.730;11.110;2023-04-15T03:48:20;24.10;;;15.93;;
33738;SDS011;20063;51.730;11.110;2023-04-15T03:50:45;25.27;;;15.60;;
33738;SDS011;20063;51.730;11.110;2023-04-15T03:53:12;26.80;;;15.77;;
33738;SDS011;20063;51.730;11.110;2023-04-15T03:55:38;27.73;;;17.80;;
33738;SDS011;20063;51.730;11.110;2023-04-15T03:58:07;30.70;;;16.05;;
33738;SDS011;20063;51.730;11.110;2023-04-15T04:00:36;30.55;;;17.48;;
33738;SDS011;20063;51.730;11.110;2023-04-15T04:03:02;27.83;;;17.60;;
33738;SDS011;20063;51.730;11.110;2023-04-15T04:05:28;30.08;;;17.83;;
33738;SDS011;20063;51.730;11.110;2023-04-15T04:07:54;33.00;;;19.17;;
33738;SDS011;20063;51.730;11.110;2023-04-15T04:10:19;35.08;;;18.85;;
33738;SDS011;20063;51.730;11.110;2023-04-15T04:12:45;35.70;;;20.90;;
33738;SDS011;20063;51.730;11.110;2023-04-15T04:15:11;37.70;;;21.58;;
33738;SDS011;20063;51.730;11.110;2023-04-15T04:17:36;39.00;;;23.05;;
33738;SDS011;20063;51.730;11.110;2023-04-15T04:20:03;38.08;;;23.88;;
33738;SDS011;20063;51.730;11.110;2023-04-15T04:22:30;47.05;;;24.33;;
33738;SDS011;20063;51.730;11.110;2023-04-15T04:24:55;47.17;;;27.08;;
33738;SDS011;20063;51.730;11.110;2023-04-15T04:27:23;51.22;;;27.92;;
33738;SDS011;20063;51.730;11.110;2023-04-15T04:29:49;58.40;;;30.52;;
33738;SDS011;20063;51.730;11.110;2023-04-15T04:32:15;50.63;;;29.88;;
33738;SDS011;20063;51.730;11.110;2023-04-15T04:34:40;62.63;;;33.33;;
33738;SDS011;20063;51.730;11.110;2023-04-15T04:37:06;61.38;;;32.45;;
33738;SDS011;20063;51.730;11.110;2023-04-15T04:39:32;61.30;;;35.30;;
33738;SDS011;20063;51.730;11.110;2023-04-15T04:41:58;62.35;;;34.33;;
33738;SDS011;20063;51.730;11.110;2023-04-15T04:44:23;63.58;;;35.60;;
33738;SDS011;20063;51.730;11.110;2023-04-15T04:46:49;56.22;;;33.50;;
33738;SDS011;20063;51.730;11.110;2023-04-15T04:49:14;60.75;;;32.42;;
33738;SDS011;20063;51.730;11.110;2023-04-15T04:51:40;54.55;;;31.45;;
33738;SDS011;20063;51.730;11.110;2023-04-15T04:54:06;59.60;;;31.13;;
33738;SDS011;20063;51.730;11.110;2023-04-15T04:56:33;57.50;;;32.58;;
33738;SDS011;20063;51.730;11.110;2023-04-15T04:58:59;59.13;;;32.92;;
33738;SDS011;20063;51.730;11.110;2023-04-15T05:01:25;56.70;;;30.75;;
33738;SDS011;20063;51.730;11.110;2023-04-15T05:03:51;55.55;;;31.45;;
33738;SDS011;20063;51.730;11.110;2023-04-15T05:06:17;52.60;;;29.10;;
33738;SDS011;20063;51.730;11.110;2023-04-15T05:08:43;50.55;;;27.52;;
33738;SDS011;20063;51.730;11.110;2023-04-15T05:11:08;53.30;;;28.38;;
33738;SDS011;20063;51.730;11.110;2023-04-15T05:13:34;51.45;;;27.50;;
33738;SDS011;20063;51.730;11.110;2023-04-15T05:16:03;55.70;;;26.80;;
33738;SDS011;20063;51.730;11.110;2023-04-15T05:18:29;49.70;;;28.17;;
33738;SDS011;20063;51.730;11.110;2023-04-15T05:20:55;49.97;;;27.23;;
33738;SDS011;20063;51.730;11.110;2023-04-15T05:23:20;46.20;;;27.08;;
33738;SDS011;20063;51.730;11.110;2023-04-15T05:25:46;45.20;;;26.17;;
33738;SDS011;20063;51.730;11.110;2023-04-15T05:28:12;49.90;;;27.48;;
33738;SDS011;20063;51.730;11.110;2023-04-15T05:30:38;52.28;;;29.42;;
33738;SDS011;20063;51.730;11.110;2023-04-15T05:33:04;43.67;;;27.23;;
33738;SDS011;20063;51.730;11.110;2023-04-15T05:35:29;46.40;;;26.67;;
33738;SDS011;20063;51.730;11.110;2023-04-15T05:37:55;48.58;;;27.42;;
33738;SDS011;20063;51.730;11.110;2023-04-15T05:40:21;44.65;;;26.25;;
33738;SDS011;20063;51.730;11.110;2023-04-15T05:42:47;49.35;;;30.10;;
33738;SDS011;20063;51.730;11.110;2023-04-15T05:45:13;47.13;;;26.83;;
33738;SDS011;20063;51.730;11.110;2023-04-15T05:47:38;51.03;;;29.13;;
33738;SDS011;20063;51.730;11.110;2023-04-15T05:50:04;50.10;;;27.88;;
33738;SDS011;20063;51.730;11.110;2023-04-15T05:52:30;48.45;;;29.75;;
33738;SDS011;20063;51.730;11.110;2023-04-15T05:54:56;49.38;;;28.80;;
33738;SDS011;20063;51.730;11.110;2023-04-15T05:57:22;45.90;;;28.73;;
33738;SDS011;20063;51.730;11.110;2023-04-15T05:59:48;51.15;;;30.02;;
33738;SDS011;20063;51.730;11.110;2023-04-15T06:02:16;51.70;;;28.80;;
33738;SDS011;20063;51.730;11.110;2023-04-15T06:04:45;42.78;;;27.00;;
33738;SDS011;20063;51.730;11.110;2023-04-15T06:07:10;44.13;;;26.92;;
33738;SDS011;20063;51.730;11.110;2023-04-15T06:09:36;44.13;;;26.23;;
33738;SDS011;20063;51.730;11.110;2023-04-15T06:12:01;43.13;;;26.20;;
33738;SDS011;20063;51.730;11.110;2023-04-15T06:14:28;42.20;;;26.83;;
33738;SDS011;20063;51.730;11.110;2023-04-15T06:16:54;40.97;;;25.13;;
33738;SDS011;20063;51.730;11.110;2023-04-15T06:19:20;39.92;;;25.35;;
33738;SDS011;20063;51.730;11.110;2023-04-15T06:21:45;40.85;;;26.20;;
33738;SDS011;20063;51.730;11.110;2023-04-15T06:24:12;46.30;;;27.38;;
33738;SDS011;20063;51.730;11.110;2023-04-15T06:26:38;42.95;;;26.30;;
33738;SDS011;20063;51.730;11.110;2023-04-15T06:29:05;43.83;;;26.48;;
33738;SDS011;20063;51.730;11.110;2023-04-15T06:31:31;45.75;;;26.10;;
33738;SDS011;20063;51.730;11.110;2023-04-15T06:33:56;38.15;;;24.45;;
33738;SDS011;20063;51.730;11.110;2023-04-15T06:36:23;43.42;;;26.45;;
33738;SDS011;20063;51.730;11.110;2023-04-15T06:38:50;39.83;;;25.42;;
33738;SDS011;20063;51.730;11.110;2023-04-15T06:41:15;47.38;;;27.15;;
33738;SDS011;20063;51.730;11.110;2023-04-15T06:43:45;40.00;;;26.02;;
33738;SDS011;20063;51.730;11.110;2023-04-15T06:46:10;39.60;;;25.65;;
33738;SDS011;20063;51.730;11.110;2023-04-15T06:48:36;42.20;;;24.50;;
33738;SDS011;20063;51.730;11.110;2023-04-15T06:51:03;40.78;;;24.08;;
33738;SDS011;20063;51.730;11.110;2023-04-15T06:53:29;44.13;;;26.45;;
33738;SDS011;20063;51.730;11.110;2023-04-15T06:55:54;40.30;;;25.95;;
33738;SDS011;20063;51.730;11.110;2023-04-15T06:58:20;39.92;;;26.52;;
33738;SDS011;20063;51.730;11.110;2023-04-15T07:00:46;40.72;;;26.40;;
33738;SDS011;20063;51.730;11.110;2023-04-15T07:03:12;36.10;;;24.52;;
33738;SDS011;20063;51.730;11.110;2023-04-15T07:05:41;36.13;;;25.17;;
33738;SDS011;20063;51.730;11.110;2023-04-15T07:08:07;42.88;;;26.33;;
33738;SDS011;20063;51.730;11.110;2023-04-15T07:10:33;32.75;;;22.92;;
33738;SDS011;20063;51.730;11.110;2023-04-15T07:12:58;33.88;;;22.98;;
33738;SDS011;20063;51.730;11.110;2023-04-15T07:15:25;36.97;;;24.30;;
33738;SDS011;20063;51.730;11.110;2023-04-15T07:17:53;34.45;;;24.10;;
33738;SDS011;20063;51.730;11.110;2023-04-15T07:20:18;35.47;;;23.75;;
33738;SDS011;20063;51.730;11.110;2023-04-15T07:22:44;35.97;;;24.67;;
33738;SDS011;20063;51.730;11.110;2023-04-15T07:25:10;36.13;;;24.50;;
33738;SDS011;20063;51.730;11.110;2023-04-15T07:27:35;33.95;;;22.65;;
33738;SDS011;20063;51.730;11.110;2023-04-15T07:30:01;30.65;;;21.48;;
33738;SDS011;20063;51.730;11.110;2023-04-15T07:32:30;37.97;;;23.52;;
33738;SDS011;20063;51.730;11.110;2023-04-15T07:34:56;30.95;;;20.67;;
33738;SDS011;20063;51.730;11.110;2023-04-15T07:37:21;31.25;;;20.65;;
33738;SDS011;20063;51.730;11.110;2023-04-15T07:39:47;32.47;;;21.38;;
33738;SDS011;20063;51.730;11.110;2023-04-15T07:42:13;28.75;;;19.77;;
33738;SDS011;20063;51.730;11.110;2023-04-15T07:44:39;32.67;;;20.10;;
33738;SDS011;20063;51.730;11.110;2023-04-15T07:47:05;27.58;;;19.65;;
33738;SDS011;20063;51.730;11.110;2023-04-15T07:49:32;32.42;;;21.45;;
33738;SDS011;20063;51.730;11.110;2023-04-15T07:51:57;38.75;;;23.95;;
33738;SDS011;20063;51.730;11.110;2023-04-15T07:54:24;55.67;;;33.70;;
33738;SDS011;20063;51.730;11.110;2023-04-15T07:56:49;62.08;;;38.95;;
33738;SDS011;20063;51.730;11.110;2023-04-15T07:59:15;68.43;;;42.95;;
33738;SDS011;20063;51.730;11.110;2023-04-15T08:01:44;54.80;;;32.63;;
33738;SDS011;20063;51.730;11.110;2023-04-15T08:04:10;39.95;;;25.50;;
33738;SDS011;20063;51.730;11.110;2023-04-15T08:06:36;39.83;;;25.63;;
33738;SDS011;20063;51.730;11.110;2023-04-15T08:09:03;36.03;;;23.67;;
33738;SDS011;20063;51.730;11.110;2023-04-15T08:11:30;37.40;;;25.20;;
33738;SDS011;20063;51.730;11.110;2023-04-15T08:13:55;39.78;;;26.17;;
33738;SDS011;20063;51.730;11.110;2023-04-15T08:16:22;39.58;;;26.38;;
33738;SDS011;20063;51.730;11.110;2023-04-15T08:18:49;31.48;;;22.88;;
33738;SDS011;20063;51.730;11.110;2023-04-15T08:21:16;34.08;;;22.38;;
33738;SDS011;20063;51.730;11.110;2023-04-15T08:23:44;32.47;;;21.80;;
33738;SDS011;20063;51.730;11.110;2023-04-15T08:26:11;32.15;;;21.88;;
33738;SDS011;20063;51.730;11.110;2023-04-15T08:28:38;39.22;;;24.83;;
33738;SDS011;20063;51.730;11.110;2023-04-15T08:31:04;35.35;;;22.17;;
33738;SDS011;20063;51.730;11.110;2023-04-15T08:33:30;36.58;;;23.48;;
33738;SDS011;20063;51.730;11.110;2023-04-15T08:35:56;36.72;;;24.38;;
33738;SDS011;20063;51.730;11.110;2023-04-15T08:38:22;33.05;;;23.25;;
33738;SDS011;20063;51.730;11.110;2023-04-15T08:40:48;34.65;;;22.40;;
33738;SDS011;20063;51.730;11.110;2023-04-15T08:43:18;34.85;;;21.52;;
33738;SDS011;20063;51.730;11.110;2023-04-15T08:45:48;33.92;;;22.27;;
33738;SDS011;20063;51.730;11.110;2023-04-15T08:48:15;36.17;;;23.55;;
33738;SDS011;20063;51.730;11.110;2023-04-15T08:50:43;32.35;;;21.80;;
33738;SDS011;20063;51.730;11.110;2023-04-15T08:53:12;35.35;;;22.40;;
33738;SDS011;20063;51.730;11.110;2023-04-15T08:55:43;38.47;;;22.77;;
33738;SDS011;20063;51.730;11.110;2023-04-15T08:58:10;41.17;;;24.67;;
33738;SDS011;20063;51.730;11.110;2023-04-15T09:00:36;38.40;;;24.23;;
33738;SDS011;20063;51.730;11.110;2023-04-15T09:03:03;34.97;;;23.40;;
33738;SDS011;20063;51.730;11.110;2023-04-15T09:05:33;36.03;;;23.77;;
33738;SDS011;20063;51.730;11.110;2023-04-15T09:08:00;33.70;;;22.00;;
33738;SDS011;20063;51.730;11.110;2023-04-15T09:10:27;30.88;;;20.63;;
33738;SDS011;20063;51.730;11.110;2023-04-15T09:12:55;31.38;;;20.58;;
33738;SDS011;20063;51.730;11.110;2023-04-15T09:15:23;32.03;;;20.92;;
33738;SDS011;20063;51.730;11.110;2023-04-15T09:17:51;31.27;;;21.27;;
33738;SDS011;20063;51.730;11.110;2023-04-15T09:20:20;34.40;;;21.95;;
33738;SDS011;20063;51.730;11.110;2023-04-15T09:22:46;33.90;;;21.60;;
33738;SDS011;20063;51.730;11.110;2023-04-15T09:30:26;35.97;;;24.00;;
33738;SDS011;20063;51.730;11.110;2023-04-15T09:32:55;34.58;;;23.20;;
33738;SDS011;20063;51.730;11.110;2023-04-15T09:35:22;30.35;;;20.63;;
33738;SDS011;20063;51.730;11.110;2023-04-15T09:37:49;33.05;;;22.42;;
33738;SDS011;20063;51.730;11.110;2023-04-15T09:40:32;33.50;;;23.02;;
33738;SDS011;20063;51.730;11.110;2023-04-15T09:43:00;38.42;;;22.85;;
33738;SDS011;20063;51.730;11.110;2023-04-15T09:45:27;39.13;;;24.02;;
33738;SDS011;20063;51.730;11.110;2023-04-15T09:47:53;39.53;;;25.98;;
33738;SDS011;20063;51.730;11.110;2023-04-15T09:50:19;38.67;;;24.25;;
33738;SDS011;20063;51.730;11.110;2023-04-15T09:52:45;38.88;;;26.40;;
33738;SDS011;20063;51.730;11.110;2023-04-15T09:55:12;42.47;;;26.52;;
33738;SDS011;20063;51.730;11.110;2023-04-15T09:57:40;41.20;;;25.98;;
33738;SDS011;20063;51.730;11.110;2023-04-15T10:00:06;37.28;;;24.52;;
33738;SDS011;20063;51.730;11.110;2023-04-15T10:02:34;35.40;;;24.58;;
33738;SDS011;20063;51.730;11.110;2023-04-15T10:05:00;39.40;;;24.80;;
33738;SDS011;20063;51.730;11.110;2023-04-15T10:07:27;40.03;;;23.10;;
33738;SDS011;20063;51.730;11.110;2023-04-15T10:09:52;35.92;;;21.85;;
33738;SDS011;20063;51.730;11.110;2023-04-15T10:12:19;38.20;;;22.23;;
33738;SDS011;20063;51.730;11.110;2023-04-15T10:14:51;36.30;;;23.08;;
33738;SDS011;20063;51.730;11.110;2023-04-15T10:17:21;44.22;;;26.65;;
33738;SDS011;20063;51.730;11.110;2023-04-15T10:19:47;43.25;;;25.20;;
33738;SDS011;20063;51.730;11.110;2023-04-15T10:22:15;39.00;;;23.10;;
33738;SDS011;20063;51.730;11.110;2023-04-15T10:24:42;40.97;;;24.65;;
33738;SDS011;20063;51.730;11.110;2023-04-15T10:27:09;39.60;;;20.75;;
33738;SDS011;20063;51.730;11.110;2023-04-15T10:29:35;36.15;;;21.67;;
33738;SDS011;20063;51.730;11.110;2023-04-15T10:32:01;41.85;;;22.52;;
33738;SDS011;20063;51.730;11.110;2023-04-15T10:34:27;37.85;;;23.40;;
33738;SDS011;20063;51.730;11.110;2023-04-15T10:36:54;39.58;;;20.88;;
33738;SDS011;20063;51.730;11.110;2023-04-15T10:42:05;34.33;;;21.02;;
33738;SDS011;20063;51.730;11.110;2023-04-15T10:44:32;30.75;;;18.42;;
33738;SDS011;20063;51.730;11.110;2023-04-15T10:46:58;37.60;;;18.75;;
33738;SDS011;20063;51.730;11.110;2023-04-15T10:49:24;27.35;;;18.52;;
33738;SDS011;20063;51.730;11.110;2023-04-15T10:51:51;33.75;;;20.55;;
33738;SDS011;20063;51.730;11.110;2023-04-15T10:59:37;28.40;;;17.30;;
33738;SDS011;20063;51.730;11.110;2023-04-15T11:05:05;32.90;;;19.25;;
33738;SDS011;20063;51.730;11.110;2023-04-15T11:12:46;51.58;;;18.27;;
33738;SDS011;20063;51.730;11.110;2023-04-15T11:15:28;29.23;;;19.80;;
33738;SDS011;20063;51.730;11.110;2023-04-15T11:17:57;29.52;;;19.35;;
33738;SDS011;20063;51.730;11.110;2023-04-15T11:20:23;27.13;;;17.38;;
33738;SDS011;20063;51.730;11.110;2023-04-15T11:22:50;27.70;;;17.88;;
33738;SDS011;20063;51.730;11.110;2023-04-15T11:25:24;49.30;;;19.88;;
33738;SDS011;20063;51.730;11.110;2023-04-15T11:27:51;39.35;;;17.15;;
33738;SDS011;20063;51.730;11.110;2023-04-15T11:30:19;28.77;;;17.90;;
33738;SDS011;20063;51.730;11.110;2023-04-15T11:32:54;31.35;;;18.85;;
33738;SDS011;20063;51.730;11.110;2023-04-15T11:35:22;31.65;;;19.20;;
33738;SDS011;20063;51.730;11.110;2023-04-15T11:37:48;71.78;;;18.85;;
33738;SDS011;20063;51.730;11.110;2023-04-15T11:40:15;59.33;;;19.25;;
33738;SDS011;20063;51.730;11.110;2023-04-15T11:42:42;36.55;;;19.60;;
33738;SDS011;20063;51.730;11.110;2023-04-15T11:45:12;30.30;;;19.80;;
33738;SDS011;20063;51.730;11.110;2023-04-15T11:47:42;70.28;;;20.95;;
33738;SDS011;20063;51.730;11.110;2023-04-15T11:53:02;54.92;;;20.67;;
33738;SDS011;20063;51.730;11.110;2023-04-15T11:55:30;32.17;;;19.67;;
33738;SDS011;20063;51.730;11.110;2023-04-15T12:00:46;43.50;;;20.95;;
33738;SDS011;20063;51.730;11.110;2023-04-15T12:13:53;52.78;;;20.50;;
33738;SDS011;20063;51.730;11.110;2023-04-15T12:16:26;40.92;;;19.98;;
33738;SDS011;20063;51.730;11.110;2023-04-15T12:18:53;42.58;;;19.73;;
33738;SDS011;20063;51.730;11.110;2023-04-15T12:21:21;90.80;;;20.70;;
33738;SDS011;20063;51.730;11.110;2023-04-15T12:26:15;36.38;;;21.08;;
33738;SDS011;20063;51.730;11.110;2023-04-15T12:28:45;40.95;;;19.85;;
33738;SDS011;20063;51.730;11.110;2023-04-15T12:31:11;38.20;;;20.58;;
33738;SDS011;20063;51.730;11.110;2023-04-15T12:33:38;39.13;;;21.65;;
33738;SDS011;20063;51.730;11.110;2023-04-15T12:36:05;37.40;;;20.42;;
33738;SDS011;20063;51.730;11.110;2023-04-15T12:38:31;51.38;;;23.48;;
33738;SDS011;20063;51.730;11.110;2023-04-15T12:40:57;42.67;;;22.92;;
33738;SDS011;20063;51.730;11.110;2023-04-15T12:43:24;48.22;;;24.02;;
33738;SDS011;20063;51.730;11.110;2023-04-15T12:45:49;59.30;;;29.02;;
33738;SDS011;20063;51.730;11.110;2023-04-15T12:48:15;71.72;;;32.30;;
33738;SDS011;20063;51.730;11.110;2023-04-15T12:50:41;77.07;;;33.08;;
33738;SDS011;20063;51.730;11.110;2023-04-15T12:53:06;76.63;;;33.58;;
33738;SDS011;20063;51.730;11.110;2023-04-15T12:55:33;96.53;;;40.42;;
33738;SDS011;20063;51.730;11.110;2023-04-15T12:57:58;71.13;;;34.42;;
33738;SDS011;20063;51.730;11.110;2023-04-15T13:00:24;88.07;;;38.03;;
33738;SDS011;20063;51.730;11.110;2023-04-15T13:02:49;77.93;;;35.78;;
33738;SDS011;20063;51.730;11.110;2023-04-15T13:05:15;77.20;;;35.17;;
33738;SDS011;20063;51.730;11.110;2023-04-15T13:07:41;80.22;;;35.45;;
33738;SDS011;20063;51.730;11.110;2023-04-15T13:10:07;76.85;;;34.05;;
33738;SDS011;20063;51.730;11.110;2023-04-15T13:12:32;79.50;;;33.75;;
33738;SDS011;20063;51.730;11.110;2023-04-15T13:15:07;83.47;;;35.28;;
33738;SDS011;20063;51.730;11.110;2023-04-15T13:17:35;79.68;;;34.78;;
33738;SDS011;20063;51.730;11.110;2023-04-15T13:20:00;78.03;;;34.60;;
33738;SDS011;20063;51.730;11.110;2023-04-15T13:22:26;79.95;;;33.95;;
33738;SDS011;20063;51.730;11.110;2023-04-15T13:25:01;75.03;;;34.25;;
33738;SDS011;20063;51.730;11.110;2023-04-15T13:27:40;72.10;;;31.65;;
33738;SDS011;20063;51.730;11.110;2023-04-15T13:30:06;62.22;;;29.95;;
33738;SDS011;20063;51.730;11.110;2023-04-15T13:32:32;76.50;;;33.03;;
33738;SDS011;20063;51.730;11.110;2023-04-15T13:34:58;83.18;;;33.83;;
33738;SDS011;20063;51.730;11.110;2023-04-15T13:37:26;70.90;;;30.88;;
33738;SDS011;20063;51.730;11.110;2023-04-15T13:39:53;79.28;;;33.22;;
33738;SDS011;20063;51.730;11.110;2023-04-15T13:42:20;74.88;;;33.47;;
33738;SDS011;20063;51.730;11.110;2023-04-15T13:44:49;74.07;;;33.50;;
33738;SDS011;20063;51.730;11.110;2023-04-15T13:47:20;75.38;;;32.72;;
33738;SDS011;20063;51.730;11.110;2023-04-15T13:49:46;75.95;;;30.73;;
33738;SDS011;20063;51.730;11.110;2023-04-15T13:52:12;62.95;;;30.02;;
33738;SDS011;20063;51.730;11.110;2023-04-15T13:54:38;66.22;;;28.90;;
33738;SDS011;20063;51.730;11.110;2023-04-15T13:57:04;67.75;;;31.58;;
33738;SDS011;20063;51.730;11.110;2023-04-15T13:59:32;73.07;;;32.47;;
33738;SDS011;20063;51.730;11.110;2023-04-15T14:01:58;66.90;;;30.58;;
33738;SDS011;20063;51.730;11.110;2023-04-15T14:04:24;64.10;;;30.75;;
33738;SDS011;20063;51.730;11.110;2023-04-15T14:06:50;66.78;;;29.73;;
33738;SDS011;20063;51.730;11.110;2023-04-15T14:09:15;57.88;;;28.25;;
33738;SDS011;20063;51.730;11.110;2023-04-15T14:11:41;63.10;;;29.77;;
33738;SDS011;20063;51.730;11.110;2023-04-15T14:14:06;81.88;;;34.63;;
33738;SDS011;20063;51.730;11.110;2023-04-15T14:16:33;76.22;;;33.65;;
33738;SDS011;20063;51.730;11.110;2023-04-15T14:19:00;67.65;;;32.65;;
33738;SDS011;20063;51.730;11.110;2023-04-15T14:21:26;68.82;;;32.28;;
33738;SDS011;20063;51.730;11.110;2023-04-15T14:23:56;72.00;;;35.08;;
33738;SDS011;20063;51.730;11.110;2023-04-15T14:26:25;70.15;;;32.60;;
33738;SDS011;20063;51.730;11.110;2023-04-15T14:28:50;66.90;;;30.65;;
33738;SDS011;20063;51.730;11.110;2023-04-15T14:31:16;69.22;;;32.63;;
33738;SDS011;20063;51.730;11.110;2023-04-15T14:33:42;58.30;;;30.63;;
33738;SDS011;20063;51.730;11.110;2023-04-15T14:36:08;77.18;;;36.17;;
33738;SDS011;20063;51.730;11.110;2023-04-15T14:38:34;71.57;;;35.72;;
33738;SDS011;20063;51.730;11.110;2023-04-15T14:41:06;80.55;;;36.38;;
33738;SDS011;20063;51.730;11.110;2023-04-15T14:43:33;69.72;;;33.75;;
33738;SDS011;20063;51.730;11.110;2023-04-15T14:45:58;70.35;;;35.00;;
33738;SDS011;20063;51.730;11.110;2023-04-15T14:48:24;66.00;;;33.33;;